createdAt,value
2022-08-02T00:03:48.650Z,1014.5
2022-08-02T00:08:59.028Z,1014.4
2022-08-02T00:14:05.413Z,1014.4
2022-08-02T00:19:07.800Z,1014.4
2022-08-02T00:24:28.769Z,1014.3
2022-08-02T00:29:24.635Z,1014.3
2022-08-02T00:34:32.060Z,1014.3
2022-08-02T00:39:33.827Z,1014.2
2022-08-02T00:44:29.857Z,1014.2
2022-08-02T00:49:46.249Z,1014.2
2022-08-02T00:54:52.691Z,1014.3
2022-08-02T00:59:59.083Z,1014.3
2022-08-02T01:05:09.462Z,1014.3
2022-08-02T01:10:11.844Z,1014.3
2022-08-02T01:15:08.212Z,1014.2
2022-08-02T01:20:14.606Z,1014.2
2022-08-02T01:25:31.016Z,1014.2
2022-08-02T01:30:37.422Z,1014.3
2022-08-02T01:35:47.374Z,1014.3
2022-08-02T01:40:50.200Z,1014.3
2022-08-02T01:45:58.173Z,1014.2
2022-08-02T01:51:04.557Z,1014.2
2022-08-02T01:56:10.940Z,1014.3
2022-08-02T02:01:18.576Z,1014.3
2022-08-02T02:06:27.698Z,1014.1
2022-08-02T02:12:09.430Z,1014.0
2022-08-02T02:17:00.502Z,1014.0
2022-08-02T02:22:03.433Z,1014.0
2022-08-02T02:26:42.913Z,1014.0
2022-08-02T02:31:46.137Z,1014.0
2022-08-02T02:37:02.566Z,1013.8
2022-08-02T02:42:09.376Z,1013.8
2022-08-02T02:47:40.235Z,1013.8
2022-08-02T02:52:12.150Z,1013.9
2022-08-02T02:57:28.301Z,1013.9
2022-08-02T03:02:39.243Z,1013.9
2022-08-02T03:07:41.624Z,1013.8
2022-08-02T03:12:38.029Z,1013.7
2022-08-02T03:17:54.410Z,1013.6
2022-08-02T03:23:00.802Z,1013.5
2022-08-02T03:28:41.301Z,1013.5
2022-08-02T03:33:48.662Z,1013.5
2022-08-02T03:38:55.048Z,1013.4
2022-08-02T03:43:51.425Z,1013.5
2022-08-02T03:49:07.944Z,1013.5
2022-08-02T03:54:14.241Z,1013.6
2022-08-02T03:59:20.626Z,1013.5
2022-08-02T04:04:27.010Z,1013.5
2022-08-02T04:09:23.385Z,1013.5
2022-08-02T04:14:43.799Z,1013.6
2022-08-02T04:20:10.216Z,1013.5
2022-08-02T04:24:42.521Z,1013.6
2022-08-02T04:29:58.923Z,1013.6
2022-08-02T04:35:39.381Z,1013.6
2022-08-02T04:40:46.757Z,1013.6
2022-08-02T04:45:53.130Z,1013.7
2022-08-02T04:50:49.498Z,1013.7
2022-08-02T04:58:54.368Z,1013.7
2022-08-02T05:01:36.365Z,1013.6
2022-08-02T05:06:19.776Z,1013.5
2022-08-02T05:12:37.306Z,1013.5
2022-08-02T05:16:32.324Z,1013.7
2022-08-02T05:21:51.942Z,1013.7
2022-08-02T05:26:58.327Z,1013.8
2022-08-02T05:32:14.765Z,1013.7
2022-08-02T05:37:33.112Z,1013.5
2022-08-02T05:42:40.268Z,1013.6
2022-08-02T05:47:36.636Z,1013.5
2022-08-02T05:52:43.022Z,1013.5
2022-08-02T05:58:42.520Z,1013.6
2022-08-02T06:03:05.809Z,1013.6
2022-08-02T06:08:12.181Z,1013.5
2022-08-02T06:13:18.560Z,1013.5
2022-08-02T06:18:27.692Z,1013.4
2022-08-02T06:23:21.309Z,1013.4
2022-08-02T06:28:37.708Z,1013.3
2022-08-02T06:33:44.186Z,1013.5
2022-08-02T06:38:40.645Z,1013.4
2022-08-02T06:44:45.993Z,1013.4
2022-08-02T06:49:02.512Z,1013.4
2022-08-02T06:54:33.938Z,1013.3
2022-08-02T06:59:16.295Z,1013.3
2022-08-02T08:11:56.223Z,1013.0
2022-08-02T08:18:17.987Z,1012.8
2022-08-02T08:23:25.377Z,1012.9
2022-08-02T08:28:31.739Z,1012.7
2022-08-02T08:33:28.118Z,1012.6
2022-08-02T08:38:44.592Z,1012.6
2022-08-02T08:44:51.085Z,1012.7
2022-08-02T08:50:14.363Z,1012.7
2022-08-02T08:54:23.778Z,1012.6
2022-08-02T08:59:10.121Z,1012.6
2022-08-02T09:04:36.552Z,1012.6
2022-08-02T09:09:22.891Z,1012.4
2022-08-02T09:14:19.269Z,1012.3
2022-08-02T09:19:35.671Z,1012.3
2022-08-02T09:24:32.024Z,1012.2
2022-08-02T09:30:05.966Z,1012.2
2022-08-02T09:37:48.344Z,1012.1
2022-08-02T09:41:01.301Z,1012.0
2022-08-02T09:45:51.664Z,1012.0
2022-08-02T09:50:38.015Z,1011.9
2022-08-02T09:55:20.326Z,1011.9
2022-08-02T10:00:50.688Z,1011.8
2022-08-02T10:05:37.269Z,1011.8
2022-08-02T10:10:39.487Z,1011.6
2022-08-02T10:16:45.991Z,1011.6
2022-08-02T10:20:42.239Z,1011.8
2022-08-02T10:26:18.706Z,1011.7
2022-08-02T10:31:05.143Z,1011.7
2022-08-02T10:36:11.543Z,1011.5
2022-08-02T10:41:07.888Z,1011.5
2022-08-02T10:47:45.453Z,1011.5
2022-08-02T10:51:58.729Z,1011.5
2022-08-02T10:57:15.542Z,1011.5
2022-08-02T11:02:11.758Z,1011.6
2022-08-02T11:07:55.059Z,1011.5
2022-08-02T11:17:41.359Z,1011.3
2022-08-02T11:22:47.738Z,1011.6
2022-08-02T11:27:44.111Z,1011.3
2022-08-02T11:33:20.553Z,1011.2
2022-08-02T11:38:06.906Z,1011.2
2022-08-02T11:43:13.305Z,1011.3
2022-08-02T11:48:09.676Z,1011.4
2022-08-02T11:53:16.048Z,1011.2
2022-08-02T11:58:22.421Z,1011.1
2022-08-02T12:03:38.932Z,1011.1
2022-08-02T12:08:35.166Z,1011.1
2022-08-02T12:14:11.670Z,1011.0
2022-08-02T12:18:58.017Z,1011.0
2022-08-02T12:23:57.102Z,1011.2
2022-08-02T12:29:10.914Z,1011.3
2022-08-02T12:34:37.485Z,1011.1
2022-08-02T12:39:23.963Z,1011.3
2022-08-02T12:44:54.248Z,1011.2
2022-08-02T12:49:26.632Z,1011.2
2022-08-02T12:54:42.960Z,1011.2
2022-08-02T12:59:49.444Z,1011.1
2022-08-02T13:04:55.814Z,1011.3
2022-08-02T13:09:52.254Z,1011.4
2022-08-02T13:15:48.972Z,1011.3
2022-08-02T13:20:44.727Z,1011.2
2022-08-02T13:25:11.733Z,1011.2
2022-08-02T13:30:28.224Z,1011.2
2022-08-02T13:35:38.612Z,1011.1
2022-08-02T13:41:03.115Z,1011.1
2022-08-02T13:45:47.481Z,1011.2
2022-08-02T13:50:53.873Z,1011.2
2022-08-02T13:56:04.250Z,1010.7
2022-08-02T14:00:56.645Z,1010.8
2022-08-02T14:06:13.046Z,1010.7
2022-08-02T14:11:09.404Z,1010.6
2022-08-02T14:16:15.801Z,1010.5
2022-08-02T14:21:48.046Z,1010.4
2022-08-02T14:27:54.153Z,1010.3
2022-08-02T14:31:48.535Z,1010.3
2022-08-02T14:37:14.922Z,1010.2
2022-08-02T14:42:21.298Z,1010.2
2022-08-02T14:47:27.681Z,1010.1
2022-08-02T14:53:14.232Z,1010.2
2022-08-02T14:57:40.601Z,1010.1
2022-08-02T15:02:50.994Z,1010.0
2022-08-02T15:07:34.659Z,1010.1
2022-08-02T15:12:39.707Z,1010.0
2022-08-02T15:17:46.070Z,1009.9
2022-08-02T15:22:52.540Z,1009.8
2022-08-02T15:27:58.913Z,1009.9
2022-08-02T15:33:05.303Z,1009.8
2022-08-02T15:38:31.773Z,1009.8
2022-08-02T15:43:18.075Z,1009.7
2022-08-02T15:48:48.478Z,1009.8
2022-08-02T15:57:53.914Z,1009.8
2022-08-02T16:01:47.866Z,1009.8
2022-08-02T16:07:40.803Z,1009.7
2022-08-02T16:11:57.962Z,1009.7
2022-08-02T16:17:04.322Z,1009.6
2022-08-02T16:22:11.144Z,1009.6
2022-08-02T16:27:17.118Z,1009.6
2022-08-02T16:32:23.486Z,1009.6
2022-08-02T16:37:52.014Z,1009.5
2022-08-02T16:42:56.292Z,1009.5
2022-08-02T16:47:56.300Z,1009.6
2022-08-02T16:52:49.161Z,1009.6
2022-08-02T16:57:56.749Z,1009.6
2022-08-02T17:02:51.903Z,1009.6
2022-08-02T17:08:17.395Z,1009.5
2022-08-02T17:13:42.703Z,1009.5
2022-08-02T17:18:43.152Z,1009.4
2022-08-02T17:24:03.853Z,1009.3
2022-08-02T17:29:33.832Z,1009.4
2022-08-02T17:33:40.194Z,1009.5
2022-08-02T17:38:50.240Z,1009.5
2022-08-02T17:43:52.978Z,1009.5
2022-08-02T17:49:48.566Z,1009.5
2022-08-02T17:54:50.341Z,1009.5
2022-08-02T17:59:12.668Z,1009.5
2022-08-02T18:04:19.110Z,1009.6
2022-08-02T18:09:25.508Z,1009.7
2022-08-02T18:15:45.788Z,1009.7
2022-08-02T18:20:03.541Z,1009.7
2022-08-02T18:24:44.941Z,1009.6
2022-08-02T18:30:00.133Z,1009.6
2022-08-02T18:34:57.593Z,1009.7
2022-08-02T18:40:24.682Z,1009.7
2022-08-02T18:46:05.074Z,1009.7
2022-08-02T18:50:17.635Z,1009.7
2022-08-02T18:56:38.915Z,1009.7
2022-08-02T19:00:51.663Z,1009.8
2022-08-02T19:07:09.202Z,1009.9
2022-08-02T19:11:07.442Z,1009.8
2022-08-02T19:15:49.839Z,1009.8
2022-08-02T19:21:01.121Z,1009.8
2022-08-02T19:26:22.705Z,1009.8
2022-08-02T19:31:09.063Z,1009.8
2022-08-02T19:36:16.983Z,1009.9
2022-08-02T19:41:22.125Z,1010.0
2022-08-02T19:46:28.418Z,1010.0
2022-08-02T19:51:58.844Z,1010.1
2022-08-02T19:56:41.184Z,1010.1
2022-08-02T20:01:48.687Z,1010.1
2022-08-02T20:06:54.154Z,1010.0
2022-08-02T20:12:01.686Z,1010.0
2022-08-02T20:17:08.084Z,1010.1
2022-08-02T20:22:14.677Z,1010.1
2022-08-02T20:27:23.065Z,1010.1
2022-08-02T20:32:27.224Z,1010.1
2022-08-02T20:38:45.705Z,1010.2
2022-08-02T20:42:40.006Z,1010.2
2022-08-02T20:47:50.679Z,1010.2
2022-08-02T20:52:52.774Z,1010.2
2022-08-02T20:58:01.123Z,1010.2
2022-08-02T21:03:05.537Z,1010.2
2022-08-02T21:08:14.036Z,1010.2
2022-08-02T21:13:18.859Z,1010.2
2022-08-02T21:18:30.536Z,1010.2
2022-08-02T21:23:31.223Z,1010.2
2022-08-02T21:28:44.901Z,1010.1
2022-08-02T21:33:58.618Z,1010.1
2022-08-02T21:38:50.481Z,1010.1
2022-08-02T21:44:00.418Z,1010.1
2022-08-02T21:49:40.543Z,1010.2
2022-08-02T21:54:29.603Z,1010.2
2022-08-02T21:59:16.687Z,1010.1
2022-08-02T22:04:22.399Z,1010.2
2022-08-02T22:09:44.622Z,1010.2
2022-08-02T22:14:35.190Z,1010.2
2022-08-02T22:19:51.067Z,1010.3
2022-08-02T22:25:48.022Z,1010.2
2022-08-02T22:30:14.323Z,1010.3
2022-08-02T22:35:00.687Z,1010.3
2022-08-02T22:42:27.590Z,1010.3
2022-08-02T22:45:13.706Z,1010.3
2022-08-02T22:50:20.519Z,1010.3
2022-08-02T23:00:32.873Z,1010.3
2022-08-02T23:05:39.242Z,1010.3
2022-08-02T23:10:45.651Z,1010.3
2022-08-02T23:15:52.168Z,1010.3
2022-08-02T23:22:00.739Z,1010.2
2022-08-02T23:27:14.317Z,1010.4
2022-08-02T23:32:46.888Z,1010.2
2022-08-02T23:37:28.097Z,1010.3
2022-08-02T23:42:58.479Z,1010.3
2022-08-02T23:47:40.821Z,1010.3
2022-08-02T23:58:34.667Z,1010.3
